sensor_id;sensor_type;location;lat;lon;timestamp;P1;durP1;ratioP1;P2;durP2;ratioP2
7659;SDS011;3872;47.902;8.162;2024-03-08T00:01:21;38.23;;;17.27;;
7659;SDS011;3872;47.902;8.162;2024-03-08T00:03:48;41.10;;;17.40;;
7659;SDS011;3872;47.902;8.162;2024-03-08T00:06:14;36.17;;;16.00;;
7659;SDS011;3872;47.902;8.162;2024-03-08T00:08:41;39.30;;;16.07;;
7659;SDS011;3872;47.902;8.162;2024-03-08T00:11:08;47.03;;;17.87;;
7659;SDS011;3872;47.902;8.162;2024-03-08T00:13:36;44.60;;;18.13;;
7659;SDS011;3872;47.902;8.162;2024-03-08T00:16:03;43.23;;;17.13;;
7659;SDS011;3872;47.902;8.162;2024-03-08T00:18:30;44.03;;;18.20;;
7659;SDS011;3872;47.902;8.162;2024-03-08T00:20:56;44.33;;;16.30;;
7659;SDS011;3872;47.902;8.162;2024-03-08T00:23:23;41.40;;;17.17;;
7659;SDS011;3872;47.902;8.162;2024-03-08T00:25:49;47.43;;;18.80;;
7659;SDS011;3872;47.902;8.162;2024-03-08T00:28:16;40.03;;;16.60;;
7659;SDS011;3872;47.902;8.162;2024-03-08T00:30:45;40.00;;;15.73;;
7659;SDS011;3872;47.902;8.162;2024-03-08T00:33:12;47.23;;;18.50;;
7659;SDS011;3872;47.902;8.162;2024-03-08T00:35:38;43.43;;;18.50;;
7659;SDS011;3872;47.902;8.162;2024-03-08T00:38:05;49.67;;;17.30;;
7659;SDS011;3872;47.902;8.162;2024-03-08T00:40:31;50.77;;;19.17;;
7659;SDS011;3872;47.902;8.162;2024-03-08T00:42:58;34.60;;;15.27;;
7659;SDS011;3872;47.902;8.162;2024-03-08T00:45:24;42.93;;;17.67;;
7659;SDS011;3872;47.902;8.162;2024-03-08T00:47:52;40.23;;;15.77;;
7659;SDS011;3872;47.902;8.162;2024-03-08T00:50:19;38.47;;;15.77;;
7659;SDS011;3872;47.902;8.162;2024-03-08T00:52:46;40.10;;;16.23;;
7659;SDS011;3872;47.902;8.162;2024-03-08T00:55:13;34.27;;;15.17;;
7659;SDS011;3872;47.902;8.162;2024-03-08T00:57:40;39.33;;;17.60;;
7659;SDS011;3872;47.902;8.162;2024-03-08T01:00:07;34.67;;;16.30;;
7659;SDS011;3872;47.902;8.162;2024-03-08T01:02:37;37.57;;;16.03;;
7659;SDS011;3872;47.902;8.162;2024-03-08T01:05:06;36.27;;;14.50;;
7659;SDS011;3872;47.902;8.162;2024-03-08T01:07:33;44.17;;;15.97;;
7659;SDS011;3872;47.902;8.162;2024-03-08T01:09:59;38.83;;;15.20;;
7659;SDS011;3872;47.902;8.162;2024-03-08T01:12:26;35.87;;;14.60;;
7659;SDS011;3872;47.902;8.162;2024-03-08T01:14:53;33.50;;;14.20;;
7659;SDS011;3872;47.902;8.162;2024-03-08T01:17:20;38.60;;;15.80;;
7659;SDS011;3872;47.902;8.162;2024-03-08T01:19:46;44.93;;;16.30;;
7659;SDS011;3872;47.902;8.162;2024-03-08T01:22:14;37.40;;;14.07;;
7659;SDS011;3872;47.902;8.162;2024-03-08T01:24:41;38.23;;;14.40;;
7659;SDS011;3872;47.902;8.162;2024-03-08T01:27:07;44.03;;;16.53;;
7659;SDS011;3872;47.902;8.162;2024-03-08T01:29:34;41.70;;;14.10;;
7659;SDS011;3872;47.902;8.162;2024-03-08T01:32:01;41.93;;;15.77;;
7659;SDS011;3872;47.902;8.162;2024-03-08T01:34:27;34.83;;;15.17;;
7659;SDS011;3872;47.902;8.162;2024-03-08T01:36:54;29.87;;;13.60;;
7659;SDS011;3872;47.902;8.162;2024-03-08T01:39:22;33.17;;;14.83;;
7659;SDS011;3872;47.902;8.162;2024-03-08T01:41:49;36.20;;;14.67;;
7659;SDS011;3872;47.902;8.162;2024-03-08T01:44:16;34.40;;;14.20;;
7659;SDS011;3872;47.902;8.162;2024-03-08T01:46:43;36.53;;;15.10;;
7659;SDS011;3872;47.902;8.162;2024-03-08T01:49:10;36.70;;;13.70;;
7659;SDS011;3872;47.902;8.162;2024-03-08T01:51:38;36.03;;;14.63;;
7659;SDS011;3872;47.902;8.162;2024-03-08T01:54:06;32.03;;;13.70;;
7659;SDS011;3872;47.902;8.162;2024-03-08T01:56:36;42.80;;;16.10;;
7659;SDS011;3872;47.902;8.162;2024-03-08T01:59:04;35.77;;;15.23;;
7659;SDS011;3872;47.902;8.162;2024-03-08T02:01:32;37.97;;;13.63;;
7659;SDS011;3872;47.902;8.162;2024-03-08T02:03:59;39.87;;;13.97;;
7659;SDS011;3872;47.902;8.162;2024-03-08T02:06:26;37.37;;;14.20;;
7659;SDS011;3872;47.902;8.162;2024-03-08T02:08:52;40.43;;;14.60;;
7659;SDS011;3872;47.902;8.162;2024-03-08T02:11:19;33.13;;;13.67;;
7659;SDS011;3872;47.902;8.162;2024-03-08T02:13:47;34.13;;;14.23;;
7659;SDS011;3872;47.902;8.162;2024-03-08T02:16:19;31.37;;;12.00;;
7659;SDS011;3872;47.902;8.162;2024-03-08T02:18:47;30.27;;;12.53;;
7659;SDS011;3872;47.902;8.162;2024-03-08T02:21:16;36.33;;;13.80;;
7659;SDS011;3872;47.902;8.162;2024-03-08T02:23:43;37.63;;;12.77;;
7659;SDS011;3872;47.902;8.162;2024-03-08T02:26:10;38.77;;;13.43;;
7659;SDS011;3872;47.902;8.162;2024-03-08T02:28:37;32.80;;;12.80;;
7659;SDS011;3872;47.902;8.162;2024-03-08T02:31:04;36.50;;;12.47;;
7659;SDS011;3872;47.902;8.162;2024-03-08T02:33:33;34.57;;;13.70;;
7659;SDS011;3872;47.902;8.162;2024-03-08T02:36:00;35.50;;;14.23;;
7659;SDS011;3872;47.902;8.162;2024-03-08T02:38:28;36.67;;;13.60;;
7659;SDS011;3872;47.902;8.162;2024-03-08T02:40:54;35.43;;;13.87;;
7659;SDS011;3872;47.902;8.162;2024-03-08T02:43:21;32.50;;;13.17;;
7659;SDS011;3872;47.902;8.162;2024-03-08T02:45:49;29.30;;;14.10;;
7659;SDS011;3872;47.902;8.162;2024-03-08T02:48:17;31.53;;;13.33;;
7659;SDS011;3872;47.902;8.162;2024-03-08T02:50:44;34.73;;;13.77;;
7659;SDS011;3872;47.902;8.162;2024-03-08T02:53:11;30.57;;;12.60;;
7659;SDS011;3872;47.902;8.162;2024-03-08T02:55:40;30.30;;;12.07;;
7659;SDS011;3872;47.902;8.162;2024-03-08T02:58:07;28.27;;;11.60;;
7659;SDS011;3872;47.902;8.162;2024-03-08T03:00:35;36.10;;;13.73;;
7659;SDS011;3872;47.902;8.162;2024-03-08T03:03:02;32.40;;;13.57;;
7659;SDS011;3872;47.902;8.162;2024-03-08T03:05:29;30.20;;;14.43;;
7659;SDS011;3872;47.902;8.162;2024-03-08T03:07:56;30.53;;;12.50;;
7659;SDS011;3872;47.902;8.162;2024-03-08T03:10:23;30.90;;;13.50;;
7659;SDS011;3872;47.902;8.162;2024-03-08T03:12:51;30.77;;;12.50;;
7659;SDS011;3872;47.902;8.162;2024-03-08T03:15:18;28.73;;;13.40;;
7659;SDS011;3872;47.902;8.162;2024-03-08T03:17:45;31.77;;;11.37;;
7659;SDS011;3872;47.902;8.162;2024-03-08T03:20:13;33.77;;;12.83;;
7659;SDS011;3872;47.902;8.162;2024-03-08T03:22:40;32.57;;;12.30;;
7659;SDS011;3872;47.902;8.162;2024-03-08T03:25:07;29.70;;;12.67;;
7659;SDS011;3872;47.902;8.162;2024-03-08T03:27:35;37.43;;;13.07;;
7659;SDS011;3872;47.902;8.162;2024-03-08T03:30:04;31.27;;;12.57;;
7659;SDS011;3872;47.902;8.162;2024-03-08T03:32:46;28.90;;;11.90;;
7659;SDS011;3872;47.902;8.162;2024-03-08T03:35:13;32.03;;;11.10;;
7659;SDS011;3872;47.902;8.162;2024-03-08T03:37:41;26.93;;;10.70;;
7659;SDS011;3872;47.902;8.162;2024-03-08T03:40:10;23.97;;;10.67;;
7659;SDS011;3872;47.902;8.162;2024-03-08T03:42:38;31.87;;;12.47;;
7659;SDS011;3872;47.902;8.162;2024-03-08T03:45:06;30.13;;;12.93;;
7659;SDS011;3872;47.902;8.162;2024-03-08T03:47:34;27.40;;;10.40;;
7659;SDS011;3872;47.902;8.162;2024-03-08T03:50:01;21.50;;;10.40;;
7659;SDS011;3872;47.902;8.162;2024-03-08T03:52:28;27.00;;;11.10;;
7659;SDS011;3872;47.902;8.162;2024-03-08T03:54:55;27.70;;;12.30;;
7659;SDS011;3872;47.902;8.162;2024-03-08T03:57:22;27.87;;;10.87;;
7659;SDS011;3872;47.902;8.162;2024-03-08T03:59:48;32.03;;;12.43;;
7659;SDS011;3872;47.902;8.162;2024-03-08T04:02:17;35.57;;;12.87;;
7659;SDS011;3872;47.902;8.162;2024-03-08T04:04:45;24.40;;;10.47;;
7659;SDS011;3872;47.902;8.162;2024-03-08T04:07:12;27.17;;;12.00;;
7659;SDS011;3872;47.902;8.162;2024-03-08T04:09:39;22.70;;;10.80;;
7659;SDS011;3872;47.902;8.162;2024-03-08T04:12:06;34.77;;;13.20;;
7659;SDS011;3872;47.902;8.162;2024-03-08T04:14:35;31.23;;;11.40;;
7659;SDS011;3872;47.902;8.162;2024-03-08T04:17:01;31.93;;;12.30;;
7659;SDS011;3872;47.902;8.162;2024-03-08T04:19:29;28.63;;;12.67;;
7659;SDS011;3872;47.902;8.162;2024-03-08T04:21:59;24.70;;;11.67;;
7659;SDS011;3872;47.902;8.162;2024-03-08T04:24:26;36.50;;;11.60;;
7659;SDS011;3872;47.902;8.162;2024-03-08T04:26:53;30.13;;;11.60;;
7659;SDS011;3872;47.902;8.162;2024-03-08T04:29:19;28.77;;;11.30;;
7659;SDS011;3872;47.902;8.162;2024-03-08T04:31:47;27.17;;;10.53;;
7659;SDS011;3872;47.902;8.162;2024-03-08T04:34:13;29.20;;;12.50;;
7659;SDS011;3872;47.902;8.162;2024-03-08T04:36:41;31.40;;;12.27;;
7659;SDS011;3872;47.902;8.162;2024-03-08T04:39:08;34.43;;;12.30;;
7659;SDS011;3872;47.902;8.162;2024-03-08T04:41:37;30.77;;;13.00;;
7659;SDS011;3872;47.902;8.162;2024-03-08T04:44:04;27.60;;;10.20;;
7659;SDS011;3872;47.902;8.162;2024-03-08T04:46:31;31.10;;;11.40;;
7659;SDS011;3872;47.902;8.162;2024-03-08T04:48:57;30.07;;;11.10;;
7659;SDS011;3872;47.902;8.162;2024-03-08T04:51:25;27.10;;;12.10;;
7659;SDS011;3872;47.902;8.162;2024-03-08T04:53:53;34.03;;;12.10;;
7659;SDS011;3872;47.902;8.162;2024-03-08T04:56:19;28.43;;;11.67;;
7659;SDS011;3872;47.902;8.162;2024-03-08T04:58:46;28.60;;;11.30;;
7659;SDS011;3872;47.902;8.162;2024-03-08T05:01:13;27.10;;;11.43;;
7659;SDS011;3872;47.902;8.162;2024-03-08T05:03:39;29.33;;;12.23;;
7659;SDS011;3872;47.902;8.162;2024-03-08T05:06:06;31.60;;;10.90;;
7659;SDS011;3872;47.902;8.162;2024-03-08T05:08:33;31.87;;;11.40;;
7659;SDS011;3872;47.902;8.162;2024-03-08T05:11:01;21.70;;;9.33;;
7659;SDS011;3872;47.902;8.162;2024-03-08T05:13:29;23.27;;;10.03;;
7659;SDS011;3872;47.902;8.162;2024-03-08T05:15:56;26.17;;;10.30;;
7659;SDS011;3872;47.902;8.162;2024-03-08T05:18:23;23.70;;;10.93;;
7659;SDS011;3872;47.902;8.162;2024-03-08T05:20:50;22.47;;;9.90;;
7659;SDS011;3872;47.902;8.162;2024-03-08T05:23:18;34.10;;;12.23;;
7659;SDS011;3872;47.902;8.162;2024-03-08T05:25:45;29.10;;;11.87;;
7659;SDS011;3872;47.902;8.162;2024-03-08T05:28:14;27.80;;;10.70;;
7659;SDS011;3872;47.902;8.162;2024-03-08T05:30:40;27.40;;;11.57;;
7659;SDS011;3872;47.902;8.162;2024-03-08T05:33:07;26.77;;;11.77;;
7659;SDS011;3872;47.902;8.162;2024-03-08T05:35:36;24.73;;;10.33;;
7659;SDS011;3872;47.902;8.162;2024-03-08T05:38:03;29.53;;;11.37;;
7659;SDS011;3872;47.902;8.162;2024-03-08T05:40:30;30.57;;;11.03;;
7659;SDS011;3872;47.902;8.162;2024-03-08T05:42:58;23.03;;;10.87;;
7659;SDS011;3872;47.902;8.162;2024-03-08T05:45:26;22.43;;;9.70;;
7659;SDS011;3872;47.902;8.162;2024-03-08T05:47:53;26.03;;;9.93;;
7659;SDS011;3872;47.902;8.162;2024-03-08T05:50:19;24.13;;;9.87;;
7659;SDS011;3872;47.902;8.162;2024-03-08T05:52:46;21.40;;;9.40;;
7659;SDS011;3872;47.902;8.162;2024-03-08T05:55:14;21.13;;;9.17;;
7659;SDS011;3872;47.902;8.162;2024-03-08T05:57:41;23.67;;;9.03;;
7659;SDS011;3872;47.902;8.162;2024-03-08T06:00:08;25.50;;;10.43;;
7659;SDS011;3872;47.902;8.162;2024-03-08T06:02:41;26.57;;;11.17;;
7659;SDS011;3872;47.902;8.162;2024-03-08T06:05:08;20.93;;;9.37;;
7659;SDS011;3872;47.902;8.162;2024-03-08T06:07:35;32.17;;;10.00;;
7659;SDS011;3872;47.902;8.162;2024-03-08T06:10:02;29.73;;;10.90;;
7659;SDS011;3872;47.902;8.162;2024-03-08T06:12:29;19.93;;;8.70;;
7659;SDS011;3872;47.902;8.162;2024-03-08T06:14:58;23.87;;;8.90;;
7659;SDS011;3872;47.902;8.162;2024-03-08T06:17:25;29.13;;;10.03;;
7659;SDS011;3872;47.902;8.162;2024-03-08T06:19:53;25.80;;;10.50;;
7659;SDS011;3872;47.902;8.162;2024-03-08T06:22:19;22.90;;;9.70;;
7659;SDS011;3872;47.902;8.162;2024-03-08T06:24:46;26.53;;;10.90;;
7659;SDS011;3872;47.902;8.162;2024-03-08T06:27:13;31.80;;;10.80;;
7659;SDS011;3872;47.902;8.162;2024-03-08T06:29:39;26.63;;;10.63;;
7659;SDS011;3872;47.902;8.162;2024-03-08T06:32:06;29.23;;;10.70;;
7659;SDS011;3872;47.902;8.162;2024-03-08T06:34:33;24.87;;;9.97;;
7659;SDS011;3872;47.902;8.162;2024-03-08T06:37:02;27.20;;;11.73;;
7659;SDS011;3872;47.902;8.162;2024-03-08T06:39:28;28.27;;;10.77;;
7659;SDS011;3872;47.902;8.162;2024-03-08T06:41:56;33.17;;;11.57;;
7659;SDS011;3872;47.902;8.162;2024-03-08T06:44:24;35.00;;;11.20;;
7659;SDS011;3872;47.902;8.162;2024-03-08T06:46:51;27.90;;;11.83;;
7659;SDS011;3872;47.902;8.162;2024-03-08T06:49:17;38.33;;;18.00;;
7659;SDS011;3872;47.902;8.162;2024-03-08T06:51:44;116.27;;;53.27;;
7659;SDS011;3872;47.902;8.162;2024-03-08T06:54:12;71.80;;;33.00;;
7659;SDS011;3872;47.902;8.162;2024-03-08T06:56:39;29.90;;;13.40;;
7659;SDS011;3872;47.902;8.162;2024-03-08T06:59:05;24.10;;;10.63;;
7659;SDS011;3872;47.902;8.162;2024-03-08T07:01:35;20.77;;;10.47;;
7659;SDS011;3872;47.902;8.162;2024-03-08T07:04:02;28.67;;;11.57;;
7659;SDS011;3872;47.902;8.162;2024-03-08T07:06:30;28.60;;;10.40;;
7659;SDS011;3872;47.902;8.162;2024-03-08T07:08:58;29.30;;;10.30;;
7659;SDS011;3872;47.902;8.162;2024-03-08T07:11:26;42.07;;;19.00;;
7659;SDS011;3872;47.902;8.162;2024-03-08T07:13:53;23.30;;;9.87;;
7659;SDS011;3872;47.902;8.162;2024-03-08T07:16:20;20.93;;;8.67;;
7659;SDS011;3872;47.902;8.162;2024-03-08T07:18:47;24.70;;;10.47;;
7659;SDS011;3872;47.902;8.162;2024-03-08T07:21:17;28.23;;;10.60;;
7659;SDS011;3872;47.902;8.162;2024-03-08T07:23:44;28.03;;;11.13;;
7659;SDS011;3872;47.902;8.162;2024-03-08T07:26:29;63.83;;;28.77;;
7659;SDS011;3872;47.902;8.162;2024-03-08T07:28:57;41.60;;;17.70;;
7659;SDS011;3872;47.902;8.162;2024-03-08T07:31:25;20.90;;;9.53;;
7659;SDS011;3872;47.902;8.162;2024-03-08T07:34:03;26.17;;;9.97;;
7659;SDS011;3872;47.902;8.162;2024-03-08T07:36:32;24.70;;;9.73;;
7659;SDS011;3872;47.902;8.162;2024-03-08T07:39:00;20.50;;;9.13;;
7659;SDS011;3872;47.902;8.162;2024-03-08T07:41:28;19.77;;;8.60;;
7659;SDS011;3872;47.902;8.162;2024-03-08T07:43:56;21.93;;;9.93;;
7659;SDS011;3872;47.902;8.162;2024-03-08T07:46:23;22.20;;;8.90;;
7659;SDS011;3872;47.902;8.162;2024-03-08T07:48:49;19.43;;;9.23;;
7659;SDS011;3872;47.902;8.162;2024-03-08T07:51:16;20.00;;;8.90;;
7659;SDS011;3872;47.902;8.162;2024-03-08T07:53:43;26.37;;;9.67;;
7659;SDS011;3872;47.902;8.162;2024-03-08T07:56:10;19.10;;;8.83;;
7659;SDS011;3872;47.902;8.162;2024-03-08T07:58:40;23.10;;;9.30;;
7659;SDS011;3872;47.902;8.162;2024-03-08T08:01:06;25.03;;;9.83;;
7659;SDS011;3872;47.902;8.162;2024-03-08T08:03:34;21.60;;;8.90;;
7659;SDS011;3872;47.902;8.162;2024-03-08T08:06:03;18.77;;;9.80;;
7659;SDS011;3872;47.902;8.162;2024-03-08T08:08:30;19.40;;;9.17;;
7659;SDS011;3872;47.902;8.162;2024-03-08T08:10:57;21.30;;;8.60;;
7659;SDS011;3872;47.902;8.162;2024-03-08T08:13:24;24.10;;;9.53;;
7659;SDS011;3872;47.902;8.162;2024-03-08T08:15:54;19.60;;;9.80;;
7659;SDS011;3872;47.902;8.162;2024-03-08T08:18:21;22.37;;;10.07;;
7659;SDS011;3872;47.902;8.162;2024-03-08T08:20:50;25.97;;;8.50;;
7659;SDS011;3872;47.902;8.162;2024-03-08T08:23:17;23.80;;;10.17;;
7659;SDS011;3872;47.902;8.162;2024-03-08T08:25:44;21.60;;;9.53;;
7659;SDS011;3872;47.902;8.162;2024-03-08T08:28:11;20.10;;;8.80;;
7659;SDS011;3872;47.902;8.162;2024-03-08T08:30:37;19.10;;;8.77;;
7659;SDS011;3872;47.902;8.162;2024-03-08T08:33:07;20.80;;;9.90;;
7659;SDS011;3872;47.902;8.162;2024-03-08T08:35:34;21.50;;;9.50;;
7659;SDS011;3872;47.902;8.162;2024-03-08T08:38:00;19.83;;;8.83;;
7659;SDS011;3872;47.902;8.162;2024-03-08T08:40:28;18.50;;;8.23;;
7659;SDS011;3872;47.902;8.162;2024-03-08T08:42:57;20.43;;;8.67;;
7659;SDS011;3872;47.902;8.162;2024-03-08T08:45:23;21.00;;;9.30;;
7659;SDS011;3872;47.902;8.162;2024-03-08T08:47:50;21.13;;;8.17;;
7659;SDS011;3872;47.902;8.162;2024-03-08T08:50:18;19.10;;;8.23;;
7659;SDS011;3872;47.902;8.162;2024-03-08T08:52:48;18.70;;;8.30;;
7659;SDS011;3872;47.902;8.162;2024-03-08T08:55:16;18.00;;;8.37;;
7659;SDS011;3872;47.902;8.162;2024-03-08T08:57:46;29.67;;;15.50;;
7659;SDS011;3872;47.902;8.162;2024-03-08T09:00:14;21.33;;;10.73;;
7659;SDS011;3872;47.902;8.162;2024-03-08T09:02:41;24.67;;;9.60;;
7659;SDS011;3872;47.902;8.162;2024-03-08T09:05:07;24.07;;;10.37;;
7659;SDS011;3872;47.902;8.162;2024-03-08T09:07:36;22.80;;;9.73;;
7659;SDS011;3872;47.902;8.162;2024-03-08T09:10:02;22.67;;;9.97;;
7659;SDS011;3872;47.902;8.162;2024-03-08T09:12:30;19.40;;;9.03;;
7659;SDS011;3872;47.902;8.162;2024-03-08T09:14:57;16.67;;;8.03;;
7659;SDS011;3872;47.902;8.162;2024-03-08T09:17:24;20.50;;;9.57;;
7659;SDS011;3872;47.902;8.162;2024-03-08T09:19:51;19.70;;;8.17;;
7659;SDS011;3872;47.902;8.162;2024-03-08T09:22:19;19.00;;;8.40;;
7659;SDS011;3872;47.902;8.162;2024-03-08T09:24:47;17.63;;;8.60;;
7659;SDS011;3872;47.902;8.162;2024-03-08T09:27:13;24.27;;;12.23;;
7659;SDS011;3872;47.902;8.162;2024-03-08T09:29:40;16.20;;;8.60;;
7659;SDS011;3872;47.902;8.162;2024-03-08T09:32:07;19.83;;;8.93;;
7659;SDS011;3872;47.902;8.162;2024-03-08T09:34:33;23.37;;;8.90;;
7659;SDS011;3872;47.902;8.162;2024-03-08T09:37:00;18.97;;;8.63;;
7659;SDS011;3872;47.902;8.162;2024-03-08T09:39:28;17.90;;;8.73;;
7659;SDS011;3872;47.902;8.162;2024-03-08T09:41:56;21.40;;;9.60;;
7659;SDS011;3872;47.902;8.162;2024-03-08T09:44:24;18.07;;;8.30;;
7659;SDS011;3872;47.902;8.162;2024-03-08T09:46:50;18.10;;;9.00;;
7659;SDS011;3872;47.902;8.162;2024-03-08T09:49:19;23.93;;;9.10;;
7659;SDS011;3872;47.902;8.162;2024-03-08T09:51:46;17.77;;;9.23;;
7659;SDS011;3872;47.902;8.162;2024-03-08T09:54:13;19.00;;;9.50;;
7659;SDS011;3872;47.902;8.162;2024-03-08T09:56:42;23.50;;;8.80;;
7659;SDS011;3872;47.902;8.162;2024-03-08T09:59:11;21.10;;;8.80;;
7659;SDS011;3872;47.902;8.162;2024-03-08T10:01:54;24.43;;;9.60;;
7659;SDS011;3872;47.902;8.162;2024-03-08T10:04:21;23.93;;;11.33;;
7659;SDS011;3872;47.902;8.162;2024-03-08T10:06:48;27.80;;;9.13;;
7659;SDS011;3872;47.902;8.162;2024-03-08T10:09:15;20.90;;;10.40;;
7659;SDS011;3872;47.902;8.162;2024-03-08T10:11:42;19.63;;;8.70;;
7659;SDS011;3872;47.902;8.162;2024-03-08T10:14:08;30.87;;;12.77;;
7659;SDS011;3872;47.902;8.162;2024-03-08T10:16:37;21.07;;;9.37;;
7659;SDS011;3872;47.902;8.162;2024-03-08T10:19:04;20.80;;;10.10;;
7659;SDS011;3872;47.902;8.162;2024-03-08T10:21:32;18.67;;;9.17;;
7659;SDS011;3872;47.902;8.162;2024-03-08T10:23:58;23.10;;;10.23;;
7659;SDS011;3872;47.902;8.162;2024-03-08T10:26:25;20.00;;;10.07;;
7659;SDS011;3872;47.902;8.162;2024-03-08T10:28:52;17.63;;;8.87;;
7659;SDS011;3872;47.902;8.162;2024-03-08T10:31:19;19.37;;;7.30;;
7659;SDS011;3872;47.902;8.162;2024-03-08T10:33:47;14.30;;;7.93;;
7659;SDS011;3872;47.902;8.162;2024-03-08T10:36:15;17.53;;;8.40;;
7659;SDS011;3872;47.902;8.162;2024-03-08T10:38:44;16.07;;;8.10;;
7659;SDS011;3872;47.902;8.162;2024-03-08T10:41:12;16.80;;;7.67;;
7659;SDS011;3872;47.902;8.162;2024-03-08T10:43:43;16.27;;;8.20;;
7659;SDS011;3872;47.902;8.162;2024-03-08T10:46:20;21.00;;;8.13;;
7659;SDS011;3872;47.902;8.162;2024-03-08T10:48:55;14.10;;;7.30;;
7659;SDS011;3872;47.902;8.162;2024-03-08T10:51:28;15.03;;;7.43;;
7659;SDS011;3872;47.902;8.162;2024-03-08T10:53:55;15.40;;;7.73;;
7659;SDS011;3872;47.902;8.162;2024-03-08T10:56:24;13.30;;;6.30;;
7659;SDS011;3872;47.902;8.162;2024-03-08T10:58:52;14.60;;;6.53;;
7659;SDS011;3872;47.902;8.162;2024-03-08T11:01:20;14.37;;;7.07;;
7659;SDS011;3872;47.902;8.162;2024-03-08T11:03:47;13.27;;;6.90;;
7659;SDS011;3872;47.902;8.162;2024-03-08T11:06:22;14.30;;;5.70;;
7659;SDS011;3872;47.902;8.162;2024-03-08T11:08:55;13.40;;;5.37;;
7659;SDS011;3872;47.902;8.162;2024-03-08T11:11:24;13.73;;;6.27;;
7659;SDS011;3872;47.902;8.162;2024-03-08T11:13:59;15.43;;;6.10;;
7659;SDS011;3872;47.902;8.162;2024-03-08T11:16:37;13.37;;;6.03;;
7659;SDS011;3872;47.902;8.162;2024-03-08T11:19:06;12.30;;;5.30;;
7659;SDS011;3872;47.902;8.162;2024-03-08T11:21:58;15.10;;;4.70;;
7659;SDS011;3872;47.902;8.162;2024-03-08T11:24:25;12.67;;;4.23;;
7659;SDS011;3872;47.902;8.162;2024-03-08T11:26:54;11.70;;;5.40;;
7659;SDS011;3872;47.902;8.162;2024-03-08T11:29:32;12.70;;;5.70;;
7659;SDS011;3872;47.902;8.162;2024-03-08T11:32:03;14.53;;;5.77;;
7659;SDS011;3872;47.902;8.162;2024-03-08T11:34:31;13.07;;;6.80;;
7659;SDS011;3872;47.902;8.162;2024-03-08T11:37:00;11.60;;;4.50;;
7659;SDS011;3872;47.902;8.162;2024-03-08T11:39:26;11.40;;;5.17;;
7659;SDS011;3872;47.902;8.162;2024-03-08T11:41:53;8.23;;;4.20;;
7659;SDS011;3872;47.902;8.162;2024-03-08T11:44:20;9.37;;;4.50;;
7659;SDS011;3872;47.902;8.162;2024-03-08T11:46:47;9.07;;;4.50;;
7659;SDS011;3872;47.902;8.162;2024-03-08T11:49:13;12.03;;;4.63;;
7659;SDS011;3872;47.902;8.162;2024-03-08T11:51:41;13.90;;;5.73;;
7659;SDS011;3872;47.902;8.162;2024-03-08T11:54:11;8.67;;;4.57;;
7659;SDS011;3872;47.902;8.162;2024-03-08T11:56:40;13.17;;;5.67;;
7659;SDS011;3872;47.902;8.162;2024-03-08T11:59:10;8.90;;;3.47;;
7659;SDS011;3872;47.902;8.162;2024-03-08T12:01:37;21.80;;;5.17;;
7659;SDS011;3872;47.902;8.162;2024-03-08T12:04:04;11.97;;;5.40;;
7659;SDS011;3872;47.902;8.162;2024-03-08T12:06:36;10.27;;;4.40;;
7659;SDS011;3872;47.902;8.162;2024-03-08T12:09:06;14.40;;;5.33;;
7659;SDS011;3872;47.902;8.162;2024-03-08T12:11:36;8.47;;;4.60;;
7659;SDS011;3872;47.902;8.162;2024-03-08T12:14:03;9.53;;;4.00;;
7659;SDS011;3872;47.902;8.162;2024-03-08T12:16:31;10.80;;;4.77;;
7659;SDS011;3872;47.902;8.162;2024-03-08T12:18:59;9.00;;;4.80;;
7659;SDS011;3872;47.902;8.162;2024-03-08T12:21:30;11.40;;;5.67;;
7659;SDS011;3872;47.902;8.162;2024-03-08T12:24:04;12.97;;;4.63;;
7659;SDS011;3872;47.902;8.162;2024-03-08T12:26:34;9.63;;;4.50;;
7659;SDS011;3872;47.902;8.162;2024-03-08T12:29:19;10.63;;;4.87;;
7659;SDS011;3872;47.902;8.162;2024-03-08T12:31:48;11.33;;;4.50;;
7659;SDS011;3872;47.902;8.162;2024-03-08T12:34:16;7.97;;;3.73;;
7659;SDS011;3872;47.902;8.162;2024-03-08T12:36:46;11.20;;;4.53;;
7659;SDS011;3872;47.902;8.162;2024-03-08T12:39:15;9.50;;;4.47;;
7659;SDS011;3872;47.902;8.162;2024-03-08T12:41:49;6.97;;;3.17;;
7659;SDS011;3872;47.902;8.162;2024-03-08T12:44:16;6.90;;;3.20;;
7659;SDS011;3872;47.902;8.162;2024-03-08T12:46:43;5.53;;;2.43;;
7659;SDS011;3872;47.902;8.162;2024-03-08T12:49:10;9.00;;;3.30;;
7659;SDS011;3872;47.902;8.162;2024-03-08T12:51:37;6.67;;;3.60;;
7659;SDS011;3872;47.902;8.162;2024-03-08T12:54:04;8.23;;;3.83;;
7659;SDS011;3872;47.902;8.162;2024-03-08T12:56:33;8.07;;;4.30;;
7659;SDS011;3872;47.902;8.162;2024-03-08T12:59:04;9.30;;;3.47;;
7659;SDS011;3872;47.902;8.162;2024-03-08T13:01:31;6.87;;;3.20;;
7659;SDS011;3872;47.902;8.162;2024-03-08T13:03:58;9.43;;;3.47;;
7659;SDS011;3872;47.902;8.162;2024-03-08T13:06:25;11.87;;;4.47;;
7659;SDS011;3872;47.902;8.162;2024-03-08T13:08:52;7.20;;;3.33;;
7659;SDS011;3872;47.902;8.162;2024-03-08T13:11:20;12.30;;;4.87;;
7659;SDS011;3872;47.902;8.162;2024-03-08T13:13:47;8.20;;;4.03;;
7659;SDS011;3872;47.902;8.162;2024-03-08T13:16:15;10.93;;;4.60;;
7659;SDS011;3872;47.902;8.162;2024-03-08T13:18:44;7.70;;;3.70;;
7659;SDS011;3872;47.902;8.162;2024-03-08T13:21:11;10.23;;;4.00;;
7659;SDS011;3872;47.902;8.162;2024-03-08T13:23:40;10.60;;;4.80;;
7659;SDS011;3872;47.902;8.162;2024-03-08T13:26:11;7.70;;;4.00;;
7659;SDS011;3872;47.902;8.162;2024-03-08T13:28:40;13.90;;;4.40;;
7659;SDS011;3872;47.902;8.162;2024-03-08T13:31:07;7.37;;;3.97;;
7659;SDS011;3872;47.902;8.162;2024-03-08T13:33:37;8.20;;;4.10;;
7659;SDS011;3872;47.902;8.162;2024-03-08T13:36:04;8.53;;;4.43;;
7659;SDS011;3872;47.902;8.162;2024-03-08T13:38:39;9.70;;;3.50;;
7659;SDS011;3872;47.902;8.162;2024-03-08T13:41:07;9.57;;;4.77;;
7659;SDS011;3872;47.902;8.162;2024-03-08T13:43:34;14.23;;;3.77;;
7659;SDS011;3872;47.902;8.162;2024-03-08T13:46:03;8.27;;;3.80;;
7659;SDS011;3872;47.902;8.162;2024-03-08T13:48:30;8.67;;;3.67;;
7659;SDS011;3872;47.902;8.162;2024-03-08T13:50:59;9.23;;;3.97;;
7659;SDS011;3872;47.902;8.162;2024-03-08T13:53:26;7.80;;;3.60;;
7659;SDS011;3872;47.902;8.162;2024-03-08T13:55:53;6.40;;;3.20;;
7659;SDS011;3872;47.902;8.162;2024-03-08T13:58:20;6.57;;;3.17;;
7659;SDS011;3872;47.902;8.162;2024-03-08T14:00:46;6.47;;;3.40;;
7659;SDS011;3872;47.902;8.162;2024-03-08T14:03:13;6.63;;;3.50;;
7659;SDS011;3872;47.902;8.162;2024-03-08T14:05:40;8.57;;;3.10;;
7659;SDS011;3872;47.902;8.162;2024-03-08T14:08:09;6.63;;;2.60;;
7659;SDS011;3872;47.902;8.162;2024-03-08T14:10:37;6.83;;;2.77;;
7659;SDS011;3872;47.902;8.162;2024-03-08T14:13:05;7.03;;;2.80;;
7659;SDS011;3872;47.902;8.162;2024-03-08T14:15:33;7.80;;;3.63;;
7659;SDS011;3872;47.902;8.162;2024-03-08T14:18:00;8.47;;;4.10;;
7659;SDS011;3872;47.902;8.162;2024-03-08T14:20:28;10.03;;;3.97;;
7659;SDS011;3872;47.902;8.162;2024-03-08T14:22:55;9.37;;;3.60;;
7659;SDS011;3872;47.902;8.162;2024-03-08T14:25:24;6.03;;;3.00;;
7659;SDS011;3872;47.902;8.162;2024-03-08T14:27:51;8.07;;;3.10;;
7659;SDS011;3872;47.902;8.162;2024-03-08T14:30:19;8.00;;;3.73;;
7659;SDS011;3872;47.902;8.162;2024-03-08T14:32:59;6.83;;;3.73;;
7659;SDS011;3872;47.902;8.162;2024-03-08T14:35:27;8.00;;;3.67;;
7659;SDS011;3872;47.902;8.162;2024-03-08T14:37:54;8.40;;;3.60;;
7659;SDS011;3872;47.902;8.162;2024-03-08T14:40:23;8.27;;;3.37;;
7659;SDS011;3872;47.902;8.162;2024-03-08T14:42:52;6.53;;;3.40;;
7659;SDS011;3872;47.902;8.162;2024-03-08T14:45:18;9.53;;;2.67;;
7659;SDS011;3872;47.902;8.162;2024-03-08T14:47:46;6.73;;;3.07;;
7659;SDS011;3872;47.902;8.162;2024-03-08T14:50:15;6.67;;;3.07;;
7659;SDS011;3872;47.902;8.162;2024-03-08T14:52:42;6.40;;;2.50;;
7659;SDS011;3872;47.902;8.162;2024-03-08T14:55:09;7.23;;;2.67;;
7659;SDS011;3872;47.902;8.162;2024-03-08T14:57:40;5.97;;;2.50;;
7659;SDS011;3872;47.902;8.162;2024-03-08T15:00:07;5.80;;;2.90;;
7659;SDS011;3872;47.902;8.162;2024-03-08T15:02:42;8.57;;;3.50;;